Time;durP1;ratioP1;P1;durP2;ratioP2;P2;SDS_P1;SDS_P2;PMS_P1;PMS_P2;Temp;Humidity;BMP_temperature;BMP_pressure;BME280_temperature;BME280_humidity;BME280_pressure;Samples;Min_cycle;Max_cycle;Signal;HPM_P1;HPM_P2
2022/02/10 00:15:34;;;;;;;47.33;34.08;;;;;;;-0.39;100.00;95974.34;5010167;28;20060;-77
2022/02/10 00:17:30;;;;;;;40.30;28.58;;;;;;;-0.34;100.00;95977.47;4997901;28;20045;-77
2022/02/10 00:25:47;;;;;;;36.90;26.48;;;;;;;-0.36;100.00;95975.91;5008978;28;20037;-77
2022/02/10 00:36:12;;;;;;;40.50;28.05;;;;;;;-0.62;100.00;95970.44;5010902;28;20156;-77
2022/02/10 00:38:44;;;;;;;47.90;30.00;;;;;;;-0.60;100.00;95976.28;4992064;28;20058;-77
2022/02/10 00:41:10;;;;;;;41.63;28.38;;;;;;;-0.73;100.00;95969.34;4993860;28;20029;-77
2022/02/10 00:43:35;;;;;;;37.67;24.38;;;;;;;-0.75;100.00;95969.44;5008314;28;20028;-78
2022/02/10 00:46:01;;;;;;;44.78;30.23;;;;;;;-0.77;100.00;95975.50;5008562;28;20125;-78
2022/02/10 00:48:26;;;;;;;41.22;27.75;;;;;;;-0.80;100.00;95971.38;4993346;28;20026;-78
2022/02/10 00:50:52;;;;;;;47.50;30.25;;;;;;;-0.68;100.00;95970.75;4991427;28;20026;-77
2022/02/10 00:53:27;;;;;;;69.68;40.15;;;;;;;-0.68;100.00;95969.94;5009387;28;20032;-76
2022/02/10 00:55:53;;;;;;;70.97;43.40;;;;;;;-0.81;100.00;95968.91;5008094;28;20033;-77
2022/02/10 00:58:31;;;;;;;57.58;35.03;;;;;;;-0.84;100.00;95958.91;5008977;28;20563;-77
2022/02/10 01:30:29;;;;;;;36.08;23.85;;;;;;;-0.78;100.00;95936.53;5007454;28;20040;-77
2022/02/10 01:32:58;;;;;;;35.65;24.02;;;;;;;-0.81;100.00;95931.59;5008780;28;20022;-77
2022/02/10 01:35:25;;;;;;;30.90;22.83;;;;;;;-0.81;100.00;95934.16;5008134;28;20029;-78
2022/02/10 01:37:51;;;;;;;27.65;21.45;;;;;;;-0.84;100.00;95930.94;4991176;28;20026;-77
2022/02/10 01:40:27;;;;;;;33.17;21.98;;;;;;;-0.81;100.00;95934.16;5008822;28;20084;-77
2022/02/10 02:04:50;;;;;;;28.50;20.10;;;;;;;-0.78;100.00;95944.16;5006614;28;20044;-77
2022/02/10 02:07:15;;;;;;;22.65;17.75;;;;;;;-0.76;100.00;95933.91;5007836;28;20026;-77
2022/02/10 02:09:40;;;;;;;26.80;20.20;;;;;;;-0.78;100.00;95938.25;4990005;28;20122;-77
2022/02/10 02:12:07;;;;;;;25.27;19.55;;;;;;;-0.68;100.00;95931.81;4991283;28;20092;-76
2022/02/10 02:14:33;;;;;;;26.60;20.08;;;;;;;-0.79;100.00;95921.34;4991273;28;20072;-77
2022/02/10 02:17:04;;;;;;;29.52;22.75;;;;;;;-0.62;100.00;95923.84;4990005;28;20029;-77
2022/02/10 02:19:32;;;;;;;25.95;21.13;;;;;;;-0.63;100.00;95923.03;4991880;28;20025;-77
2022/02/10 02:22:07;;;;;;;23.98;18.85;;;;;;;-0.57;100.00;95921.88;4989885;28;20044;-77
2022/02/10 02:24:34;;;;;;;27.52;21.98;;;;;;;-0.49;100.00;95922.31;5007909;28;20033;-76
2022/02/10 02:27:03;;;;;;;28.58;21.98;;;;;;;-0.47;100.00;95919.69;4989908;28;20026;-77
2022/02/10 02:29:40;;;;;;;30.55;22.65;;;;;;;-0.48;100.00;95918.84;5008527;28;20045;-78
2022/02/10 02:32:13;;;;;;;28.63;21.25;;;;;;;-0.41;100.00;95911.72;4994497;28;20108;-78
2022/02/10 02:37:34;;;;;;;24.83;18.38;;;;;;;-0.44;100.00;95916.97;5010295;28;20041;-78
2022/02/10 03:04:43;;;;;;;45.22;30.42;;;;;;;-1.17;100.00;95941.88;5007461;28;20529;-77
2022/02/10 03:07:07;;;;;;;48.25;31.48;;;;;;;-1.33;100.00;95945.25;5007222;28;20480;-78
2022/02/10 03:09:39;;;;;;;52.42;33.33;;;;;;;-1.39;100.00;95951.47;5008072;28;20467;-77
2022/02/10 03:12:05;;;;;;;40.60;27.58;;;;;;;-1.70;100.00;95944.47;5007675;28;20030;-77
2022/02/10 03:14:35;;;;;;;37.05;26.48;;;;;;;-1.58;100.00;95940.53;4990018;28;20061;-77
2022/02/10 04:10:30;;;;;;;22.55;17.55;;;;;;;-2.09;100.00;95930.28;5005512;28;20105;-78
2022/02/10 04:28:26;;;;;;;27.45;17.67;;;;;;;-2.09;100.00;95948.06;5008839;28;20184;-77
2022/02/10 05:21:34;;;;;;;77.60;39.22;;;;;;;-2.28;100.00;95950.59;5009182;28;20156;-76
2022/02/10 05:35:06;;;;;;;46.33;30.38;;;;;;;-2.27;100.00;95944.63;4972153;28;20426;-77
2022/02/10 05:37:34;;;;;;;31.77;23.42;;;;;;;-2.16;100.00;95952.59;4993972;28;20121;-77
2022/02/10 05:40:05;;;;;;;31.77;25.05;;;;;;;-2.12;100.00;95954.88;4992204;28;20026;-77
2022/02/10 05:45:15;;;;;;;43.92;29.17;;;;;;;-2.17;100.00;95943.31;5025772;28;20037;-77
2022/02/10 05:48:19;;;;;;;26.45;20.20;;;;;;;-2.05;100.00;95947.81;5006905;28;20018;-77
2022/02/10 06:01:51;;;;;;;22.42;17.80;;;;;;;-1.61;100.00;95945.78;4999953;28;20038;-76
2022/02/10 07:09:06;;;;;;;63.80;36.97;;;;;;;1.01;100.00;95939.44;4996243;28;20129;-76
2022/02/10 07:14:59;;;;;;;52.05;30.15;;;;;;;1.33;100.00;95940.94;5005493;28;20061;-76
2022/02/10 07:17:15;;;;;;;41.25;24.58;;;;;;;1.24;100.00;95938.91;5016903;28;20052;-76
2022/02/10 07:47:48;;;;;;;66.85;36.78;;;;;;;1.66;100.00;95938.09;5017312;28;20552;-76
2022/02/10 07:49:46;;;;;;;50.85;30.70;;;;;;;2.24;100.00;95937.91;5014183;28;20041;-76
2022/02/10 07:57:32;;;;;;;38.88;26.58;;;;;;;2.53;100.00;95930.94;5027058;28;20034;-76
2022/02/10 08:00:07;;;;;;;54.08;31.65;;;;;;;2.75;100.00;95933.75;5024563;28;20483;-76
2022/02/10 09:15:26;;;;;;;13.38;12.15;;;;;;;8.45;91.24;95896.81;5045946;28;20482;-76
2022/02/10 09:56:16;;;;;;;9.98;8.82;;;;;;;14.72;48.73;95848.00;5014293;28;20113;-75
2022/02/10 09:59:01;;;;;;;9.60;8.68;;;;;;;16.05;47.37;95828.97;5022360;28;20037;-75
2022/02/10 10:01:35;;;;;;;8.20;7.60;;;;;;;17.69;43.41;95830.53;5023583;28;20036;-75
2022/02/10 10:04:12;;;;;;;8.75;8.07;;;;;;;17.60;43.17;95826.44;5023555;28;21996;-75
2022/02/10 10:06:50;;;;;;;8.90;8.10;;;;;;;18.02;42.90;95826.25;5021113;28;20049;-76
2022/02/10 10:14:53;;;;;;;10.00;9.20;;;;;;;17.81;42.66;95808.03;5023837;28;20523;-76
2022/02/10 10:20:22;;;;;;;7.25;6.75;;;;;;;17.81;42.02;95810.63;5025550;28;20044;-75
2022/02/10 10:51:17;;;;;;;9.70;8.90;;;;;;;10.13;69.71;95771.00;5008689;28;20117;-75
2022/02/10 10:53:51;;;;;;;10.77;9.80;;;;;;;8.78;79.01;95770.81;5034561;28;20104;-75
2022/02/10 10:56:24;;;;;;;10.73;9.80;;;;;;;9.18;80.40;95763.66;5026495;28;20029;-75
2022/02/10 11:38:38;;;;;;;9.88;9.05;;;;;;;8.90;79.38;95723.19;5031338;28;20071;-75
2022/02/10 11:41:26;;;;;;;10.25;9.45;;;;;;;9.30;76.22;95720.31;5028600;28;20064;-75
2022/02/10 11:44:17;;;;;;;10.27;9.30;;;;;;;9.20;76.45;95715.22;5015756;28;20029;-75
2022/02/10 14:17:45;;;;;;;10.07;8.93;;;;;;;9.71;76.13;95603.44;5035105;28;20041;-75
2022/02/10 14:20:32;;;;;;;14.25;8.95;;;;;;;9.47;74.84;95603.22;5025487;28;20403;-77
2022/02/10 14:23:06;;;;;;;9.23;7.80;;;;;;;9.44;77.00;95596.56;5026769;28;20460;-76
2022/02/10 14:28:17;;;;;;;10.68;8.95;;;;;;;9.45;77.07;95594.78;5042799;28;20063;-76
2022/02/10 14:30:43;;;;;;;8.68;7.88;;;;;;;9.61;74.97;95592.34;5044365;28;20071;-76
2022/02/10 14:33:08;;;;;;;7.32;6.72;;;;;;;9.67;73.12;95586.56;5045647;28;20108;-76
2022/02/10 14:35:51;;;;;;;9.70;7.75;;;;;;;9.44;75.14;95587.97;5017054;28;20064;-76
2022/02/10 15:10:58;;;;;;;9.48;8.52;;;;;;;9.21;74.34;95576.47;5044444;28;20433;-76
2022/02/10 16:17:12;;;;;;;91.50;63.78;;;;;;;4.36;100.00;95568.97;5006399;28;20066;-76
2022/02/10 16:19:40;;;;;;;54.28;34.20;;;;;;;4.19;100.00;95565.13;5014414;28;20091;-76
2022/02/10 16:22:21;;;;;;;26.45;19.45;;;;;;;4.12;100.00;95567.31;5008466;28;20172;-76
2022/02/10 16:27:16;;;;;;;28.13;19.52;;;;;;;3.84;100.00;95575.47;5003967;28;20041;-76
2022/02/10 16:29:42;;;;;;;13.15;11.75;;;;;;;3.76;100.00;95574.41;5015275;28;20523;-76
2022/02/10 16:32:11;;;;;;;11.77;10.48;;;;;;;3.58;100.00;95579.13;5021987;28;20033;-76
2022/02/10 16:34:40;;;;;;;15.18;11.93;;;;;;;3.40;100.00;95575.38;5025155;28;20040;-75
2022/02/10 16:37:08;;;;;;;9.13;8.07;;;;;;;3.48;100.00;95566.19;5025133;28;20032;-76
2022/02/10 16:39:33;;;;;;;10.85;7.97;;;;;;;3.47;100.00;95573.97;5023530;28;20017;-75
2022/02/10 16:42:02;;;;;;;12.80;9.48;;;;;;;3.43;100.00;95575.97;5024758;28;20037;-76
2022/02/10 16:44:27;;;;;;;11.65;9.80;;;;;;;3.34;100.00;95579.16;5024738;28;20063;-75
2022/02/10 16:46:53;;;;;;;27.50;17.83;;;;;;;3.43;100.00;95572.59;5029291;28;20033;-75
2022/02/10 16:49:21;;;;;;;53.42;25.75;;;;;;;3.26;100.00;95578.94;5021745;28;20034;-75
2022/02/10 16:51:47;;;;;;;25.90;17.85;;;;;;;3.19;100.00;95577.72;5023572;28;20112;-75
2022/02/10 16:54:29;;;;;;;17.30;14.00;;;;;;;3.18;100.00;95581.22;5024356;28;20517;-75
2022/02/10 17:02:18;;;;;;;31.50;20.35;;;;;;;2.70;100.00;95587.28;5023530;28;20048;-76
2022/02/10 17:05:21;;;;;;;49.47;30.60;;;;;;;2.53;100.00;95579.03;5026909;28;20037;-75
2022/02/10 17:26:33;;;;;;;10.40;6.63;;;;;;;2.44;100.00;95583.97;5044364;28;20933;-75
2022/02/10 17:29:07;;;;;;;8.65;6.03;;;;;;;2.42;100.00;95586.63;5030173;28;20485;-75
2022/02/10 17:31:46;;;;;;;8.57;7.43;;;;;;;2.36;100.00;95588.78;5044136;28;20032;-75
2022/02/10 17:37:00;;;;;;;12.25;7.80;;;;;;;2.29;100.00;95588.38;5034883;28;21023;-76
2022/02/10 17:52:38;;;;;;;20.02;11.48;;;;;;;1.91;100.00;95590.97;5006086;28;20076;-74
2022/02/10 17:55:09;;;;;;;31.27;20.60;;;;;;;1.97;100.00;95585.47;5005644;28;20058;-75
2022/02/10 17:57:35;;;;;;;85.03;46.33;;;;;;;1.99;100.00;95587.91;5003133;28;20575;-76
2022/02/10 18:00:00;;;;;;;85.95;47.60;;;;;;;2.06;100.00;95584.00;5011544;28;20153;-76
2022/02/10 18:02:26;;;;;;;81.63;48.15;;;;;;;1.97;100.00;95585.47;5023933;28;20069;-76
2022/02/10 18:04:51;;;;;;;63.38;40.42;;;;;;;2.02;100.00;95591.06;5025886;28;20612;-76
2022/02/10 18:07:17;;;;;;;58.85;36.63;;;;;;;1.93;100.00;95593.41;5024899;28;20036;-75
2022/02/10 18:13:13;;;;;;;34.42;21.55;;;;;;;1.80;100.00;95587.53;4993675;28;20137;-76
2022/02/10 18:15:29;;;;;;;32.92;24.23;;;;;;;1.78;100.00;95591.88;5023255;28;20026;-75
2022/02/10 18:18:01;;;;;;;49.63;36.05;;;;;;;1.74;100.00;95582.78;5022012;28;20040;-76
2022/02/10 18:20:35;;;;;;;29.13;20.48;;;;;;;1.53;100.00;95585.88;5022700;28;20048;-75
2022/02/10 19:10:43;;;;;;;54.80;34.67;;;;;;;1.26;100.00;95607.22;5010764;28;20129;-76
2022/02/10 19:13:09;;;;;;;49.95;29.58;;;;;;;1.17;100.00;95605.28;5022038;28;20037;-76
2022/02/10 19:15:35;;;;;;;32.80;24.00;;;;;;;1.03;100.00;95606.97;5020595;28;20037;-76
2022/02/10 19:18:05;;;;;;;29.35;22.05;;;;;;;0.76;100.00;95607.88;5022920;28;20033;-75
2022/02/10 19:20:32;;;;;;;;;;;;;;;0.92;100.00;95608.56;5020612;28;20049;-75
2022/02/10 19:22:58;;;;;;;26.45;15.98;;;;;;;0.80;100.00;95611.88;5022363;28;19924;-75
2022/02/10 19:25:23;;;;;;;23.92;16.88;;;;;;;0.85;100.00;95607.31;5018327;28;20038;-76
2022/02/10 19:27:49;;;;;;;34.55;20.60;;;;;;;0.78;100.00;95611.16;5004220;28;20080;-76
2022/02/10 19:30:18;;;;;;;30.67;20.27;;;;;;;0.72;100.00;95611.53;5020744;28;20124;-75
2022/02/10 19:32:49;;;;;;;41.15;24.95;;;;;;;0.80;100.00;95611.88;5019102;28;20107;-76
2022/02/10 19:35:17;;;;;;;52.80;30.48;;;;;;;0.77;100.00;95620.50;5020757;28;20033;-76
2022/02/10 19:37:45;;;;;;;42.38;25.75;;;;;;;0.76;100.00;95618.06;5017549;28;20105;-75
2022/02/10 19:40:11;;;;;;;47.20;29.60;;;;;;;0.78;100.00;95618.78;5020852;28;20041;-76
2022/02/10 19:42:39;;;;;;;58.22;34.60;;;;;;;0.89;100.00;95624.06;5018535;28;20040;-76
2022/02/10 19:45:06;;;;;;;61.00;35.03;;;;;;;0.98;100.00;95629.41;5040262;28;20032;-76
2022/02/10 19:47:35;;;;;;;64.03;34.83;;;;;;;0.93;100.00;95622.97;5039126;28;20163;-76
2022/02/10 19:50:08;;;;;;;51.10;30.73;;;;;;;1.02;100.00;95624.91;5025507;28;20049;-75
2022/02/10 19:52:37;;;;;;;47.55;27.92;;;;;;;0.98;100.00;95626.84;5036216;28;20482;-75
2022/02/10 19:55:03;;;;;;;55.63;31.48;;;;;;;1.01;100.00;95624.09;5022432;28;20018;-76
2022/02/10 19:57:28;;;;;;;46.97;25.27;;;;;;;0.88;100.00;95624.94;5022875;28;20064;-76
2022/02/10 19:59:56;;;;;;;45.85;25.88;;;;;;;0.70;100.00;95628.66;5023369;28;20045;-76
2022/02/10 20:02:24;;;;;;;67.20;37.88;;;;;;;0.77;100.00;95629.91;5025277;28;20164;-76
2022/02/10 20:04:49;;;;;;;96.07;53.63;;;;;;;0.68;100.00;95627.91;5023971;28;20045;-76
2022/02/10 20:07:15;;;;;;;93.35;50.88;;;;;;;0.66;100.00;95622.94;5023310;28;20491;-76
2022/02/10 20:09:41;;;;;;;74.68;43.15;;;;;;;0.74;100.00;95630.09;5005918;28;20038;-76
2022/02/10 20:12:06;;;;;;;46.85;27.60;;;;;;;0.64;100.00;95623.94;5024330;28;20030;-76
2022/02/10 20:14:32;;;;;;;46.20;27.65;;;;;;;0.56;100.00;95629.50;5024041;28;20040;-76
2022/02/10 20:16:58;;;;;;;41.22;23.48;;;;;;;0.58;100.00;95627.66;5024247;28;20032;-76
2022/02/10 20:19:25;;;;;;;31.10;20.40;;;;;;;0.80;100.00;95640.75;5007636;28;20056;-76
2022/02/10 20:21:51;;;;;;;53.40;34.28;;;;;;;0.80;100.00;95640.75;5023091;28;20095;-76
2022/02/10 20:24:16;;;;;;;54.28;36.83;;;;;;;0.82;100.00;95648.28;5007377;28;20037;-76
2022/02/10 20:26:43;;;;;;;31.35;21.02;;;;;;;0.64;100.00;95634.94;5023602;28;20594;-76
2022/02/10 20:29:11;;;;;;;26.17;17.02;;;;;;;0.48;100.00;95631.69;5022727;28;20502;-76
2022/02/10 20:31:39;;;;;;;22.83;16.10;;;;;;;0.45;100.00;95670.09;5006982;28;20490;-78
2022/02/10 20:34:10;;;;;;;31.52;21.25;;;;;;;0.67;100.00;95667.06;5004579;28;20107;-75
2022/02/10 20:36:36;;;;;;;57.70;30.88;;;;;;;0.57;100.00;95671.06;5007364;28;20462;-76
2022/02/10 20:39:06;;;;;;;39.28;23.70;;;;;;;0.55;100.00;95676.25;5026847;28;20060;-76
2022/02/10 20:41:34;;;;;;;37.97;24.17;;;;;;;0.51;100.00;95673.06;5024372;28;20113;-76
2022/02/10 20:44:01;;;;;;;29.23;18.45;;;;;;;0.44;100.00;95668.44;5024391;28;20960;-76
2022/02/10 20:46:29;;;;;;;31.25;20.10;;;;;;;0.57;100.00;95673.63;4986908;28;20067;-76
2022/02/10 20:48:56;;;;;;;40.42;27.83;;;;;;;0.55;100.00;95665.28;5005004;28;20080;-76
2022/02/10 20:51:21;;;;;;;59.70;38.83;;;;;;;0.40;100.00;95655.06;5012582;28;20482;-75
2022/02/10 20:53:48;;;;;;;87.20;62.38;;;;;;;0.47;100.00;95668.25;5005482;28;20029;-76
2022/02/10 20:56:18;;;;;;;63.72;48.85;;;;;;;0.53;100.00;95666.16;5021091;28;20024;-75
2022/02/10 20:58:44;;;;;;;51.17;38.37;;;;;;;0.53;100.00;95663.63;5031987;28;20040;-76
2022/02/10 21:01:13;;;;;;;26.90;19.67;;;;;;;0.28;100.00;95657.53;5018260;28;20307;-75
2022/02/10 21:03:38;;;;;;;27.98;20.55;;;;;;;0.16;100.00;95653.97;5020113;28;20037;-76
2022/02/10 21:09:04;;;;;;;22.63;17.88;;;;;;;0.21;100.00;95654.53;5019539;28;20176;-75
2022/02/10 21:11:30;;;;;;;31.05;23.42;;;;;;;-0.22;100.00;95651.13;5008636;28;20577;-76
2022/02/10 21:13:57;;;;;;;20.33;17.02;;;;;;;-0.38;100.00;95642.75;5021157;28;20029;-76
2022/02/10 21:16:24;;;;;;;19.00;12.93;;;;;;;0.11;100.00;95650.06;5021766;28;20018;-75
2022/02/10 21:18:49;;;;;;;24.67;17.83;;;;;;;-0.07;100.00;95631.63;5020175;28;20032;-75
2022/02/10 21:21:17;;;;;;;34.72;26.27;;;;;;;0.06;100.00;95642.72;5020959;28;20034;-76
2022/02/10 21:23:53;;;;;;;48.08;35.67;;;;;;;0.18;100.00;95647.09;5022099;28;20045;-76
2022/02/10 21:26:20;;;;;;;42.53;29.63;;;;;;;0.09;100.00;95639.19;5020528;28;20037;-75
2022/02/10 21:28:48;;;;;;;35.72;24.02;;;;;;;0.13;100.00;95645.72;5005012;28;20081;-76
2022/02/10 21:31:13;;;;;;;26.33;19.48;;;;;;;0.20;100.00;95642.72;5005309;28;20037;-75
2022/02/10 21:39:07;;;;;;;25.77;16.83;;;;;;;0.26;100.00;95628.78;5016823;28;20079;-75
2022/02/10 22:00:33;;;;;;;28.95;18.23;;;;;;;0.12;100.00;95590.63;5020134;28;20030;-77
2022/02/10 22:18:37;;;;;;;15.95;12.63;;;;;;;-0.05;100.00;95574.63;5023122;28;20091;-76
2022/02/10 22:21:05;;;;;;;27.40;21.27;;;;;;;-0.50;100.00;95571.41;5022100;28;20032;-76
2022/02/10 22:23:34;;;;;;;43.58;28.17;;;;;;;-0.30;100.00;95558.38;5021823;28;20033;-77
2022/02/10 22:26:02;;;;;;;21.83;16.30;;;;;;;-0.19;100.00;95567.00;5021462;28;20037;-78
2022/02/10 22:36:23;;;;;;;154.32;86.50;;;;;;;-0.30;100.00;95555.81;5019010;28;20064;-77
2022/02/10 22:38:52;;;;;;;99.93;59.38;;;;;;;-0.37;100.00;95559.63;5018701;28;20046;-77
2022/02/10 22:41:17;;;;;;;193.45;98.88;;;;;;;-0.51;100.00;95564.72;5018836;28;20128;-77
2022/02/10 22:43:46;;;;;;;126.28;65.68;;;;;;;-0.65;100.00;95573.13;5022032;28;20064;-77
2022/02/10 22:46:13;;;;;;;111.93;61.35;;;;;;;-0.57;100.00;95571.78;5006074;28;20044;-77
2022/02/10 22:48:41;;;;;;;73.90;41.13;;;;;;;-0.37;100.00;95567.25;5009716;28;20841;-77
2022/02/10 22:51:07;;;;;;;29.05;18.13;;;;;;;-0.33;100.00;95561.09;5002493;28;20025;-77
2022/02/10 22:53:33;;;;;;;18.00;13.15;;;;;;;-0.34;100.00;95560.25;5001858;28;20165;-77
2022/02/10 22:55:58;;;;;;;22.85;15.13;;;;;;;-0.48;100.00;95567.88;5018895;28;20511;-77
2022/02/10 22:58:24;;;;;;;21.63;14.93;;;;;;;-0.51;100.00;95567.25;5018915;28;20018;-77
2022/02/10 23:00:50;;;;;;;32.78;21.63;;;;;;;-0.57;100.00;95561.59;5001807;28;20030;-77
2022/02/10 23:03:21;;;;;;;32.80;22.80;;;;;;;-0.50;100.00;95567.16;5021998;28;20416;-77
2022/02/10 23:05:47;;;;;;;19.67;14.30;;;;;;;-0.43;100.00;95568.44;5001612;28;20513;-77
2022/02/10 23:08:13;;;;;;;14.13;10.95;;;;;;;-0.35;100.00;95563.72;5020246;28;20483;-77
2022/02/10 23:13:05;;;;;;;11.50;9.38;;;;;;;-0.29;100.00;95543.00;5021222;28;20038;-77
2022/02/10 23:15:36;;;;;;;11.27;9.23;;;;;;;-0.37;100.00;95549.44;5006660;28;20033;-77
2022/02/10 23:18:14;;;;;;;13.68;9.70;;;;;;;-0.39;100.00;95553.81;5006223;28;20172;-77
2022/02/10 23:20:40;;;;;;;12.43;9.48;;;;;;;-0.67;100.00;95555.41;5006116;28;20124;-76
2022/02/10 23:23:08;;;;;;;10.93;8.50;;;;;;;-0.58;100.00;95559.16;5021988;28;20112;-77
2022/02/10 23:25:35;;;;;;;12.57;9.05;;;;;;;-0.68;100.00;95548.72;5028798;28;20037;-76
2022/02/10 23:28:01;;;;;;;15.50;9.30;;;;;;;-0.70;100.00;95552.22;5028562;28;20079;-77
2022/02/10 23:30:27;;;;;;;10.15;7.65;;;;;;;-0.91;100.00;95533.13;5042848;28;20116;-77
2022/02/10 23:32:57;;;;;;;10.52;9.27;;;;;;;-0.56;100.00;95544.63;5016933;28;20026;-76
2022/02/10 23:37:57;;;;;;;9.98;7.55;;;;;;;-0.79;100.00;95547.66;5025399;28;20042;-77
2022/02/10 23:40:28;;;;;;;8.15;7.18;;;;;;;-0.71;100.00;95546.34;5026704;28;20033;-79
2022/02/10 23:42:55;;;;;;;8.95;7.18;;;;;;;-0.61;100.00;95554.25;5035376;28;20065;-79
2022/02/10 23:45:24;;;;;;;8.32;7.35;;;;;;;-0.66;100.00;95551.16;5013542;28;20034;-76
2022/02/10 23:47:51;;;;;;;9.15;7.50;;;;;;;-0.77;100.00;95554.28;5025846;28;20029;-79
2022/02/10 23:50:17;;;;;;;11.90;10.02;;;;;;;-0.92;100.00;95556.91;5036829;28;20041;-79
2022/02/10 23:52:43;;;;;;;12.07;10.43;;;;;;;-0.92;100.00;95560.25;5020787;28;20521;-79
2022/02/10 23:55:15;;;;;;;14.00;10.98;;;;;;;-0.94;100.00;95566.34;5040024;28;20029;-79
2022/02/10 23:57:54;;;;;;;15.80;11.27;;;;;;;-0.96;100.00;95565.63;5034583;28;20033;-78
